Time;durP1;ratioP1;P1;durP2;ratioP2;P2;SDS_P1;SDS_P2;PMS_P1;PMS_P2;Temp;Humidity;BMP_temperature;BMP_pressure;BME280_temperature;BME280_humidity;BME280_pressure;Samples;Min_cycle;Max_cycle;Signal;HPM_P1;HPM_P2
2023/10/02 00:02:07;;;;;;;15.20;8.40;;;;;;;14.67;100.00;98768.31;5095718;28;20244;-72
2023/10/02 00:04:35;;;;;;;13.43;8.47;;;;;;;14.66;100.00;98769.34;5095659;28;20210;-72
2023/10/02 00:07:14;;;;;;;14.50;8.33;;;;;;;14.68;100.00;98766.44;5095646;28;20207;-72
2023/10/02 00:09:49;;;;;;;14.67;8.07;;;;;;;14.72;100.00;98768.44;5095258;28;20627;-72
2023/10/02 00:12:19;;;;;;;15.00;8.73;;;;;;;14.75;100.00;98762.63;5095692;28;20639;-72
2023/10/02 00:14:48;;;;;;;12.87;8.30;;;;;;;14.72;100.00;98764.94;5095721;28;20192;-72
2023/10/02 00:17:18;;;;;;;11.37;8.07;;;;;;;14.71;100.00;98769.50;5095767;28;20234;-72
2023/10/02 00:19:49;;;;;;;12.50;7.90;;;;;;;14.70;100.00;98765.16;5095373;28;20691;-72
2023/10/02 00:22:38;;;;;;;11.80;7.97;;;;;;;14.65;100.00;98766.91;5095428;28;20231;-72
2023/10/02 00:25:22;;;;;;;13.23;8.70;;;;;;;14.67;100.00;98771.00;5095401;28;20667;-72
2023/10/02 00:27:54;;;;;;;12.43;8.07;;;;;;;14.80;100.00;98764.63;5095302;28;20230;-72
2023/10/02 00:30:35;;;;;;;10.93;7.57;;;;;;;14.79;100.00;98758.44;5095306;28;20184;-72
2023/10/02 00:33:03;;;;;;;10.87;7.70;;;;;;;14.79;100.00;98768.38;5095286;28;20196;-72
2023/10/02 00:35:49;;;;;;;12.17;8.40;;;;;;;14.80;100.00;98764.63;5095132;28;20204;-72
2023/10/02 00:38:17;;;;;;;13.43;8.07;;;;;;;14.80;100.00;98768.13;5095296;28;20230;-72
2023/10/02 00:40:45;;;;;;;12.70;8.27;;;;;;;14.83;100.00;98762.31;5095002;28;20238;-72
2023/10/02 00:45:59;;;;;;;14.87;8.47;;;;;;;14.78;100.00;98759.50;5094829;28;20278;-72
2023/10/02 00:48:28;;;;;;;10.97;8.30;;;;;;;14.74;100.00;98765.56;5094973;28;20315;-72
2023/10/02 00:51:05;;;;;;;12.30;8.10;;;;;;;14.72;100.00;98754.25;5094895;28;20286;-72
2023/10/02 00:53:43;;;;;;;11.43;7.97;;;;;;;14.68;100.00;98759.25;5094875;28;20294;-72
2023/10/02 00:56:21;;;;;;;15.63;8.17;;;;;;;14.74;100.00;98752.19;5094757;28;20243;-72
2023/10/02 00:58:55;;;;;;;12.20;8.03;;;;;;;14.57;100.00;98754.66;5094980;28;20227;-72
2023/10/02 01:01:24;;;;;;;12.43;7.83;;;;;;;14.57;100.00;98749.28;5094654;28;20216;-72
2023/10/02 01:04:11;;;;;;;12.23;8.27;;;;;;;14.54;100.00;98746.28;5094674;28;20208;-72
2023/10/02 01:07:04;;;;;;;12.70;7.40;;;;;;;14.59;100.00;98746.41;5094626;28;20279;-72
2023/10/02 01:09:35;;;;;;;11.90;7.67;;;;;;;14.59;100.00;98747.22;5094578;28;20627;-72
2023/10/02 01:12:03;;;;;;;11.37;7.40;;;;;;;14.51;100.00;98744.88;5094495;28;20708;-72
2023/10/02 01:14:50;;;;;;;11.20;7.70;;;;;;;14.43;100.00;98742.50;5094429;28;20620;-72
2023/10/02 01:17:20;;;;;;;14.40;7.83;;;;;;;14.41;100.00;98739.25;5094563;28;20188;-72
2023/10/02 01:19:54;;;;;;;12.03;7.87;;;;;;;14.41;100.00;98744.59;5094357;28;20212;-72
2023/10/02 01:22:42;;;;;;;12.90;8.23;;;;;;;14.42;100.00;98740.88;5093672;28;20228;-72
2023/10/02 01:25:14;;;;;;;11.80;7.90;;;;;;;14.34;100.00;98748.41;5094321;28;20192;-72
2023/10/02 01:27:46;;;;;;;13.50;7.57;;;;;;;14.29;100.00;98740.25;5094167;28;20698;-72
2023/10/02 01:30:18;;;;;;;11.40;7.60;;;;;;;14.31;100.00;98733.63;5094270;28;20184;-72
2023/10/02 01:35:53;;;;;;;14.77;7.90;;;;;;;14.32;100.00;98737.94;5088225;28;20215;-72
2023/10/02 01:38:31;;;;;;;11.83;7.57;;;;;;;14.27;100.00;98737.78;5093983;28;20230;-72
2023/10/02 01:41:05;;;;;;;13.30;7.80;;;;;;;14.24;100.00;98730.22;5093893;28;20219;-72
2023/10/02 01:43:39;;;;;;;15.03;8.30;;;;;;;14.21;100.00;98738.72;5093968;28;20643;-72
2023/10/02 01:46:07;;;;;;;13.00;7.60;;;;;;;14.20;100.00;98731.69;5094293;28;20184;-72
2023/10/02 01:48:39;;;;;;;13.73;7.97;;;;;;;14.14;100.00;98739.78;5094050;28;20311;-72
2023/10/02 01:51:20;;;;;;;12.97;8.20;;;;;;;14.04;100.00;98742.16;5094693;28;20188;-72
2023/10/02 01:53:53;;;;;;;13.27;8.20;;;;;;;14.06;100.00;98734.75;5093877;28;20599;-73
2023/10/02 01:56:20;;;;;;;10.70;7.57;;;;;;;14.10;100.00;98738.59;5093833;28;20617;-72
2023/10/02 01:58:48;;;;;;;12.27;7.90;;;;;;;14.08;100.00;98732.66;5093931;28;20219;-72
2023/10/02 02:01:15;;;;;;;13.93;8.20;;;;;;;14.09;100.00;98735.13;5093679;28;20690;-72
2023/10/02 02:03:46;;;;;;;11.67;7.00;;;;;;;14.04;100.00;98743.00;5093999;28;20286;-72
2023/10/02 02:06:16;;;;;;;11.43;7.20;;;;;;;14.01;100.00;98734.59;5093988;28;20273;-72
2023/10/02 02:08:44;;;;;;;11.47;7.70;;;;;;;14.07;100.00;98731.81;5093860;28;20281;-72
2023/10/02 02:11:18;;;;;;;12.67;8.07;;;;;;;14.04;100.00;98737.66;5093943;28;20226;-72
2023/10/02 02:13:49;;;;;;;12.97;7.97;;;;;;;13.97;100.00;98736.09;5093895;28;20192;-72
2023/10/02 02:16:21;;;;;;;12.83;8.27;;;;;;;14.08;100.00;98728.13;5093564;28;20240;-72
2023/10/02 02:18:50;;;;;;;11.47;7.80;;;;;;;14.04;100.00;98721.59;5093777;28;20230;-72
2023/10/02 02:21:19;;;;;;;14.40;8.57;;;;;;;14.08;100.00;98728.13;5093687;28;20255;-72
2023/10/02 02:23:46;;;;;;;14.73;8.57;;;;;;;14.00;100.00;98727.59;5093286;28;20250;-72
2023/10/02 02:26:21;;;;;;;14.73;8.27;;;;;;;13.97;100.00;98734.22;5093744;28;20277;-72
2023/10/02 02:28:52;;;;;;;11.90;7.50;;;;;;;14.00;100.00;98727.59;5093600;28;20234;-72
2023/10/02 02:31:32;;;;;;;13.07;7.97;;;;;;;13.94;100.00;98731.19;5093735;28;20192;-72
2023/10/02 02:34:14;;;;;;;12.57;8.03;;;;;;;13.91;100.00;98729.78;5097807;28;20188;-72
2023/10/02 02:36:42;;;;;;;12.57;8.13;;;;;;;13.85;100.00;98721.84;5097857;28;20241;-72
2023/10/02 02:39:16;;;;;;;14.23;8.03;;;;;;;13.85;100.00;98732.53;5098008;28;20219;-72
2023/10/02 02:41:44;;;;;;;14.90;7.90;;;;;;;13.83;100.00;98724.72;5105658;28;20239;-72
2023/10/02 02:46:55;;;;;;;12.23;8.17;;;;;;;13.85;100.00;98729.84;5097144;28;20202;-72
2023/10/02 02:49:22;;;;;;;12.20;8.43;;;;;;;13.80;100.00;98729.72;5097283;28;20259;-72
2023/10/02 02:51:49;;;;;;;11.40;8.00;;;;;;;13.82;100.00;98728.44;5097487;28;20206;-72
2023/10/02 02:54:15;;;;;;;12.80;8.67;;;;;;;13.72;100.00;98728.16;5097489;28;20272;-72
2023/10/02 02:56:42;;;;;;;15.20;8.37;;;;;;;13.76;100.00;98729.34;5097527;28;20204;-72
2023/10/02 02:59:08;;;;;;;13.70;8.33;;;;;;;13.83;100.00;98729.28;5097188;28;20250;-72
2023/10/02 03:01:34;;;;;;;13.17;7.90;;;;;;;13.74;100.00;98731.41;5097163;28;20220;-72
2023/10/02 03:04:11;;;;;;;14.03;7.70;;;;;;;13.70;100.00;98729.41;5097232;28;20214;-72
2023/10/02 03:06:38;;;;;;;16.73;8.83;;;;;;;13.74;100.00;98730.59;5097139;28;20279;-72
2023/10/02 03:09:05;;;;;;;13.27;7.60;;;;;;;13.64;100.00;98731.09;5097089;28;20226;-72
2023/10/02 03:11:32;;;;;;;11.50;8.20;;;;;;;13.69;100.00;98731.25;5097087;28;20257;-72
2023/10/02 03:14:12;;;;;;;12.60;7.90;;;;;;;13.69;100.00;98728.59;5096993;28;20203;-72
2023/10/02 03:16:39;;;;;;;12.67;8.70;;;;;;;13.73;100.00;98736.97;5096398;28;20567;-72
2023/10/02 03:19:07;;;;;;;12.53;7.87;;;;;;;13.75;100.00;98727.69;5096530;28;20593;-72
2023/10/02 03:21:37;;;;;;;14.20;8.10;;;;;;;13.81;100.00;98726.81;5096354;28;20767;-72
2023/10/02 03:24:07;;;;;;;14.70;8.47;;;;;;;13.77;100.00;98725.63;5096910;28;20192;-72
2023/10/02 03:26:39;;;;;;;14.90;8.50;;;;;;;13.73;100.00;98731.63;5096539;28;20302;-72
2023/10/02 03:29:16;;;;;;;12.33;7.93;;;;;;;13.64;100.00;98725.78;5096775;28;20227;-72
2023/10/02 03:31:49;;;;;;;11.50;8.10;;;;;;;13.55;100.00;98739.63;5096804;28;20184;-72
2023/10/02 03:34:34;;;;;;;12.30;8.27;;;;;;;13.45;100.00;98732.13;5096216;28;20196;-72
2023/10/02 03:37:13;;;;;;;11.90;7.53;;;;;;;13.37;100.00;98737.75;5096445;28;20198;-72
2023/10/02 03:39:59;;;;;;;13.07;7.63;;;;;;;13.37;100.00;98737.75;5096547;28;20192;-72
2023/10/02 03:42:30;;;;;;;11.43;7.70;;;;;;;13.40;100.00;98742.66;5096452;28;20192;-72
2023/10/02 03:44:58;;;;;;;15.20;8.60;;;;;;;13.29;100.00;98740.69;5095650;28;20192;-72
2023/10/02 03:47:26;;;;;;;13.00;8.73;;;;;;;13.32;100.00;98737.59;5096048;28;20228;-72
2023/10/02 03:50:00;;;;;;;11.43;7.47;;;;;;;13.33;100.00;98744.56;5096352;28;20204;-72
2023/10/02 03:52:28;;;;;;;13.33;8.13;;;;;;;13.32;100.00;98744.78;5096083;28;20606;-72
2023/10/02 03:54:55;;;;;;;12.90;8.27;;;;;;;13.35;100.00;98741.69;5095936;28;20614;-72
2023/10/02 03:57:47;;;;;;;15.70;8.43;;;;;;;13.37;100.00;98740.44;5096626;28;20366;-72
2023/10/02 04:00:18;;;;;;;10.73;7.60;;;;;;;13.27;100.00;98734.78;5096164;28;20303;-72
2023/10/02 04:02:45;;;;;;;13.13;8.17;;;;;;;13.27;100.00;98741.97;5096018;28;20198;-72
2023/10/02 04:05:30;;;;;;;13.20;8.53;;;;;;;13.23;100.00;98744.25;5095930;28;20200;-73
2023/10/02 04:08:12;;;;;;;17.13;9.23;;;;;;;13.24;100.00;98743.22;5095396;28;20234;-72
2023/10/02 04:10:51;;;;;;;13.97;8.33;;;;;;;13.20;100.00;98741.22;5095905;28;20199;-72
2023/10/02 04:13:21;;;;;;;13.67;8.10;;;;;;;13.22;100.00;98744.47;5095569;28;20230;-72
2023/10/02 04:15:47;;;;;;;12.47;8.30;;;;;;;13.17;100.00;98739.81;5095213;28;20302;-72
2023/10/02 04:18:45;;;;;;;12.43;8.80;;;;;;;13.16;100.00;98743.47;5095346;28;20702;-72
2023/10/02 04:21:09;;;;;;;14.70;9.03;;;;;;;13.15;100.00;98741.06;5095144;28;20224;-72
2023/10/02 04:23:40;;;;;;;11.17;8.27;;;;;;;13.10;100.00;98738.19;5095640;28;20216;-72
2023/10/02 04:26:06;;;;;;;13.07;8.90;;;;;;;13.10;100.00;98739.03;5095252;28;20279;-72
2023/10/02 04:28:49;;;;;;;11.07;8.03;;;;;;;13.10;100.00;98741.69;5095054;28;20223;-72
2023/10/02 04:31:20;;;;;;;13.17;8.30;;;;;;;13.17;100.00;98738.97;5096227;28;20530;-72
2023/10/02 04:33:52;;;;;;;12.57;8.03;;;;;;;13.09;100.00;98737.41;5094881;28;20257;-72
2023/10/02 04:36:31;;;;;;;13.87;8.43;;;;;;;13.09;100.00;98737.41;5095267;28;20192;-72
2023/10/02 04:38:57;;;;;;;13.83;8.50;;;;;;;13.03;100.00;98737.44;5094980;28;20231;-72
2023/10/02 04:41:26;;;;;;;12.90;8.17;;;;;;;13.06;100.00;98743.16;5094798;28;20329;-72
2023/10/02 04:43:57;;;;;;;13.33;8.57;;;;;;;12.99;100.00;98745.09;5095124;28;20203;-72
2023/10/02 04:46:26;;;;;;;13.23;8.77;;;;;;;13.01;100.00;98742.16;5094745;28;20265;-72
2023/10/02 04:48:59;;;;;;;13.93;8.83;;;;;;;13.02;100.00;98744.63;5094701;28;20280;-72
2023/10/02 04:51:28;;;;;;;13.60;9.13;;;;;;;13.07;100.00;98744.78;5094673;28;20286;-72
2023/10/02 04:53:58;;;;;;;11.63;8.20;;;;;;;13.03;100.00;98746.25;5094495;28;20571;-72
2023/10/02 04:56:28;;;;;;;14.80;8.63;;;;;;;13.05;100.00;98738.88;5093757;28;20208;-72
2023/10/02 04:58:57;;;;;;;14.87;8.97;;;;;;;13.06;100.00;98737.81;5094619;28;20257;-72
2023/10/02 05:01:41;;;;;;;12.03;9.07;;;;;;;13.04;100.00;98741.75;5094411;28;20623;-72
2023/10/02 05:04:07;;;;;;;14.97;9.10;;;;;;;12.97;100.00;98751.69;5094495;28;20244;-72
2023/10/02 05:06:52;;;;;;;13.10;8.50;;;;;;;12.93;100.00;98739.75;5094652;28;20208;-72
2023/10/02 05:09:25;;;;;;;15.40;8.90;;;;;;;12.99;100.00;98742.41;5094714;28;20317;-72
2023/10/02 05:11:55;;;;;;;17.50;9.43;;;;;;;12.97;100.00;98741.78;5094395;28;20194;-72
2023/10/02 05:14:29;;;;;;;13.43;8.90;;;;;;;12.99;100.00;98741.59;5094249;28;20635;-72
2023/10/02 05:22:24;;;;;;;12.70;8.27;;;;;;;13.08;100.00;98741.09;5089469;28;20253;-72
2023/10/02 05:24:58;;;;;;;14.23;8.77;;;;;;;13.06;100.00;98748.50;5094294;28;20694;-73
2023/10/02 05:27:35;;;;;;;13.97;8.90;;;;;;;13.07;100.00;98744.00;5094272;28;20226;-72
2023/10/02 05:30:12;;;;;;;12.20;8.13;;;;;;;13.11;100.00;98754.00;5094425;28;20195;-72
2023/10/02 05:32:41;;;;;;;12.37;8.73;;;;;;;12.99;100.00;98753.09;5094158;28;20188;-72
2023/10/02 05:35:16;;;;;;;14.70;8.53;;;;;;;13.05;100.00;98756.72;5094089;28;20211;-72
2023/10/02 05:37:45;;;;;;;14.73;9.00;;;;;;;13.10;100.00;98757.72;5093761;28;20747;-72
2023/10/02 05:40:38;;;;;;;14.63;8.30;;;;;;;13.12;100.00;98754.84;5093721;28;20215;-72
2023/10/02 05:43:09;;;;;;;14.43;8.30;;;;;;;13.15;100.00;98762.41;5094286;28;20199;-72
2023/10/02 05:45:47;;;;;;;14.63;9.00;;;;;;;13.19;100.00;98761.75;5094002;28;20241;-72
2023/10/02 05:48:31;;;;;;;12.83;8.27;;;;;;;13.26;100.00;98764.38;5093780;28;20225;-72
2023/10/02 05:50:59;;;;;;;14.73;8.73;;;;;;;13.27;100.00;98766.00;5094194;28;20547;-72
2023/10/02 05:53:34;;;;;;;15.67;9.03;;;;;;;13.27;100.00;98758.81;5094018;28;20219;-72
2023/10/02 05:56:12;;;;;;;14.80;8.87;;;;;;;13.35;100.00;98757.72;5093868;28;20191;-72
2023/10/02 05:58:41;;;;;;;14.00;8.37;;;;;;;13.37;100.00;98760.97;5093621;28;20237;-72
2023/10/02 06:01:26;;;;;;;13.03;8.67;;;;;;;13.38;100.00;98766.09;5093525;28;20226;-73
2023/10/02 06:03:57;;;;;;;12.03;8.30;;;;;;;13.44;100.00;98775.09;5094083;28;20324;-73
2023/10/02 06:06:25;;;;;;;13.80;8.70;;;;;;;13.45;100.00;98758.84;5093544;28;20612;-73
2023/10/02 06:09:01;;;;;;;17.80;9.20;;;;;;;13.40;100.00;98769.38;5093313;28;20224;-73
2023/10/02 06:11:28;;;;;;;13.63;8.00;;;;;;;13.33;100.00;98763.25;5092943;28;20617;-73
2023/10/02 06:14:10;;;;;;;14.40;9.00;;;;;;;13.38;100.00;98771.44;5093244;28;20216;-74
2023/10/02 06:16:39;;;;;;;15.90;8.77;;;;;;;13.30;100.00;98768.22;5093056;28;20210;-73
2023/10/02 06:19:13;;;;;;;13.30;8.83;;;;;;;13.32;100.00;98772.31;5093193;28;20279;-73
2023/10/02 06:21:45;;;;;;;13.90;8.97;;;;;;;13.19;100.00;98766.25;5092751;28;20203;-73
2023/10/02 06:24:16;;;;;;;14.87;8.90;;;;;;;13.31;100.00;98772.53;5092967;28;20322;-73
2023/10/02 06:26:57;;;;;;;13.23;9.00;;;;;;;13.40;100.00;98777.38;5093085;28;20197;-72
2023/10/02 06:29:29;;;;;;;13.70;8.97;;;;;;;13.44;100.00;98773.25;5093225;28;20230;-72
2023/10/02 06:31:59;;;;;;;15.80;8.70;;;;;;;13.53;100.00;98774.59;5093310;28;20188;-73
2023/10/02 06:34:43;;;;;;;14.30;8.50;;;;;;;13.60;100.00;98770.00;5092852;28;20192;-72
2023/10/02 06:37:12;;;;;;;12.30;8.17;;;;;;;13.70;100.00;98764.16;5093212;28;20192;-72
2023/10/02 06:39:45;;;;;;;17.37;9.93;;;;;;;13.78;100.00;98775.34;5092999;28;20211;-72
2023/10/02 06:42:17;;;;;;;14.67;8.87;;;;;;;13.87;100.00;98782.03;5093629;28;20246;-72
2023/10/02 06:44:52;;;;;;;16.50;9.23;;;;;;;13.92;100.00;98776.84;5093017;28;20278;-72
2023/10/02 06:47:21;;;;;;;14.97;8.63;;;;;;;13.96;100.00;98772.69;5092986;28;20622;-73
2023/10/02 06:49:51;;;;;;;15.40;8.67;;;;;;;13.96;100.00;98771.88;5092475;28;20243;-72
2023/10/02 06:52:17;;;;;;;15.90;9.47;;;;;;;13.99;100.00;98782.13;5093182;28;20583;-72
2023/10/02 06:54:56;;;;;;;14.83;9.17;;;;;;;14.14;100.00;98775.38;5092945;28;20203;-72
2023/10/02 06:57:24;;;;;;;16.43;9.27;;;;;;;14.26;100.00;98776.28;5093144;28;20258;-72
2023/10/02 06:59:54;;;;;;;14.43;8.70;;;;;;;14.30;100.00;98780.13;5093000;28;20208;-72
2023/10/02 07:02:26;;;;;;;14.27;8.87;;;;;;;14.39;100.00;98777.97;5092796;28;20703;-72
2023/10/02 07:04:55;;;;;;;14.60;8.83;;;;;;;14.48;100.00;98779.28;5093162;28;20216;-72
2023/10/02 07:07:32;;;;;;;12.00;8.50;;;;;;;14.55;100.00;98783.50;5092469;28;20563;-72
2023/10/02 07:10:07;;;;;;;14.10;8.80;;;;;;;14.63;100.00;98780.53;5092900;28;20657;-72
2023/10/02 07:12:39;;;;;;;14.67;9.53;;;;;;;14.72;100.00;98776.47;5092810;28;20187;-72
2023/10/02 07:15:13;;;;;;;12.37;8.50;;;;;;;14.95;100.00;98773.88;5092905;28;20269;-72
2023/10/02 07:17:48;;;;;;;13.13;8.83;;;;;;;15.07;100.00;98772.03;5093001;28;20253;-72
2023/10/02 07:20:20;;;;;;;13.20;9.27;;;;;;;15.11;100.00;98769.72;5095550;28;20188;-72
2023/10/02 07:22:47;;;;;;;13.63;8.53;;;;;;;15.09;100.00;98771.78;5096477;28;20235;-72
2023/10/02 07:25:20;;;;;;;13.67;9.13;;;;;;;15.04;100.00;98777.84;5096599;28;20200;-72
2023/10/02 07:27:48;;;;;;;12.50;8.17;;;;;;;15.11;100.00;98775.88;5096472;28;20228;-72
2023/10/02 07:30:24;;;;;;;12.27;8.77;;;;;;;15.15;100.00;98774.38;5096621;28;20208;-72
2023/10/02 07:32:53;;;;;;;15.10;8.70;;;;;;;15.31;100.00;98773.72;5096652;28;20274;-72
2023/10/02 07:35:22;;;;;;;15.70;8.77;;;;;;;15.39;100.00;98765.38;5096513;28;20284;-72
2023/10/02 07:37:58;;;;;;;14.97;9.03;;;;;;;15.46;100.00;98767.91;5096413;28;20224;-72
2023/10/02 07:43:11;;;;;;;14.40;8.70;;;;;;;15.65;100.00;98770.25;5096024;28;20781;-72
2023/10/02 07:45:38;;;;;;;13.93;8.87;;;;;;;15.73;100.00;98767.22;5096254;28;20200;-73
2023/10/02 07:48:11;;;;;;;14.63;8.93;;;;;;;15.84;100.00;98766.38;5095713;28;20744;-73
2023/10/02 07:50:41;;;;;;;12.47;9.23;;;;;;;16.06;100.00;98767.38;5095963;28;20203;-72
2023/10/02 07:53:08;;;;;;;14.10;8.63;;;;;;;16.12;100.00;98763.78;5095876;28;20580;-73
2023/10/02 07:55:42;;;;;;;15.63;9.23;;;;;;;16.12;100.00;98769.16;5095722;28;20208;-73
2023/10/02 07:58:08;;;;;;;11.33;7.97;;;;;;;16.20;100.00;98770.66;5095689;28;20699;-73
2023/10/02 08:00:41;;;;;;;15.50;9.47;;;;;;;16.26;100.00;98761.63;5095929;28;20575;-73
2023/10/02 08:03:42;;;;;;;16.37;10.37;;;;;;;16.35;100.00;98763.72;5095588;28;20713;-73
2023/10/02 08:06:21;;;;;;;15.30;8.67;;;;;;;16.54;100.00;98764.38;5095925;28;20280;-73
2023/10/02 08:11:36;;;;;;;13.77;9.23;;;;;;;16.69;100.00;98767.34;5095336;28;20540;-72
2023/10/02 08:14:05;;;;;;;16.90;9.10;;;;;;;16.78;100.00;98768.59;5095555;28;20570;-72
2023/10/02 08:16:58;;;;;;;13.13;8.90;;;;;;;17.01;100.00;98765.78;5095109;28;20223;-72
2023/10/02 08:19:20;;;;;;;17.30;10.17;;;;;;;17.01;100.00;98763.91;5094924;28;20223;-72
2023/10/02 08:21:47;;;;;;;15.87;8.50;;;;;;;17.13;100.00;98774.56;5095083;28;20568;-72
2023/10/02 08:24:14;;;;;;;13.00;9.00;;;;;;;17.13;100.00;98767.34;5095307;28;20605;-72
2023/10/02 08:26:44;;;;;;;17.40;9.47;;;;;;;17.25;100.00;98761.88;5095512;28;20210;-73
2023/10/02 08:29:18;;;;;;;17.03;9.70;;;;;;;17.36;100.00;98764.50;5095618;28;20699;-73
2023/10/02 08:31:48;;;;;;;16.27;8.77;;;;;;;17.53;100.00;98759.94;5095985;28;20183;-73
2023/10/02 08:34:19;;;;;;;14.37;9.17;;;;;;;17.63;100.00;98764.66;5096000;28;20199;-72
2023/10/02 08:36:47;;;;;;;14.00;9.50;;;;;;;17.67;100.00;98763.09;5095153;28;20253;-72
2023/10/02 08:39:21;;;;;;;14.77;9.13;;;;;;;17.63;100.00;98761.97;5094706;28;20230;-72
2023/10/02 08:41:50;;;;;;;14.47;9.37;;;;;;;17.79;100.00;98756.56;5095324;28;20303;-72
2023/10/02 08:44:18;;;;;;;18.60;9.63;;;;;;;17.95;100.00;98757.56;5094763;28;20257;-72
2023/10/02 08:46:48;;;;;;;16.20;10.30;;;;;;;17.93;100.00;98757.84;5094529;28;20708;-72
2023/10/02 08:49:16;;;;;;;17.07;9.67;;;;;;;17.87;100.00;98758.81;5094687;28;20239;-73
2023/10/02 08:51:49;;;;;;;13.33;9.03;;;;;;;18.13;100.00;98744.63;5094889;28;20226;-73
2023/10/02 08:54:17;;;;;;;17.00;10.00;;;;;;;18.42;100.00;98742.59;5094853;28;20195;-72
2023/10/02 08:56:44;;;;;;;13.77;8.97;;;;;;;18.31;100.00;98749.72;5094845;28;20199;-72
2023/10/02 08:59:19;;;;;;;12.63;9.37;;;;;;;18.28;100.00;98746.72;5094197;28;20233;-73
2023/10/02 09:01:49;;;;;;;14.63;8.30;;;;;;;18.36;100.00;98748.97;5094790;28;20628;-73
2023/10/02 09:04:28;;;;;;;14.40;8.67;;;;;;;18.31;100.00;98748.88;5094737;28;20206;-74
2023/10/02 09:06:59;;;;;;;15.43;9.33;;;;;;;18.62;100.00;98749.03;5094967;28;20275;-73
2023/10/02 09:09:36;;;;;;;15.20;8.63;;;;;;;18.72;100.00;98738.34;5094044;28;20659;-73
2023/10/02 09:12:03;;;;;;;15.67;8.83;;;;;;;18.93;100.00;98745.56;5094912;28;20199;-73
2023/10/02 09:14:42;;;;;;;14.87;9.00;;;;;;;19.33;100.00;98740.56;5094365;28;20230;-73
2023/10/02 09:17:16;;;;;;;15.07;9.67;;;;;;;19.39;100.00;98744.06;5094373;28;20192;-73
2023/10/02 09:20:07;;;;;;;16.43;9.50;;;;;;;19.58;100.00;98742.59;5094555;28;20211;-73
2023/10/02 09:22:37;;;;;;;15.33;9.60;;;;;;;19.71;100.00;98744.03;5094313;28;20265;-73
2023/10/02 09:25:15;;;;;;;18.57;10.13;;;;;;;20.00;100.00;98739.88;5094352;28;20200;-73
2023/10/02 09:27:59;;;;;;;16.33;9.80;;;;;;;20.12;100.00;98729.72;5094332;28;20259;-73
2023/10/02 09:30:36;;;;;;;13.83;9.37;;;;;;;20.08;100.00;98739.38;5094088;28;20279;-73
2023/10/02 09:33:14;;;;;;;14.87;9.13;;;;;;;19.96;100.00;98739.59;5094283;28;20314;-73
2023/10/02 09:35:42;;;;;;;15.97;9.87;;;;;;;20.03;100.00;98731.25;5094347;28;20195;-73
2023/10/02 09:38:13;;;;;;;16.53;9.37;;;;;;;20.24;100.00;98732.97;5093737;28;20228;-73
2023/10/02 09:41:14;;;;;;;15.67;9.67;;;;;;;20.16;100.00;98725.41;5093760;28;20689;-73
2023/10/02 09:43:42;;;;;;;16.17;9.67;;;;;;;20.51;100.00;98731.75;5093201;28;20596;-73
2023/10/02 09:46:15;;;;;;;14.43;9.67;;;;;;;20.71;99.35;98729.06;5093901;28;20200;-73
2023/10/02 09:49:21;;;;;;;15.63;9.60;;;;;;;21.01;99.03;98726.44;5093635;28;20657;-73
2023/10/02 09:52:15;;;;;;;16.47;9.73;;;;;;;21.07;98.67;98728.06;5079874;28;20589;-73
2023/10/02 09:55:03;;;;;;;15.33;9.60;;;;;;;20.85;100.00;98719.38;5092510;28;20583;-73
2023/10/02 09:57:39;;;;;;;14.70;8.97;;;;;;;21.00;98.64;98714.03;5093350;28;20635;-73
2023/10/02 10:00:33;;;;;;;16.23;9.57;;;;;;;21.20;96.95;98718.63;5093829;28;20278;-73
2023/10/02 10:03:30;;;;;;;16.97;9.77;;;;;;;21.35;96.08;98708.59;5093118;28;20675;-73
2023/10/02 10:06:15;;;;;;;13.37;9.53;;;;;;;21.62;96.18;98705.59;5093709;28;20215;-73
2023/10/02 10:09:19;;;;;;;14.47;10.40;;;;;;;21.64;94.94;98703.41;5093663;28;20219;-73
2023/10/02 10:11:44;;;;;;;19.30;11.13;;;;;;;21.53;94.09;98702.63;5093575;28;20180;-73
2023/10/02 10:14:35;;;;;;;17.67;10.30;;;;;;;21.86;93.10;98698.50;5093671;28;20230;-73
2023/10/02 10:17:12;;;;;;;19.23;10.40;;;;;;;21.93;92.92;98697.13;5093106;28;20243;-73
2023/10/02 10:19:41;;;;;;;16.73;10.40;;;;;;;22.15;89.83;98699.50;5093659;28;20187;-73
2023/10/02 10:22:51;;;;;;;14.67;9.53;;;;;;;22.17;89.45;98698.13;5093450;28;20241;-73
2023/10/02 10:25:32;;;;;;;17.83;10.18;;;;;;;22.55;87.89;98693.88;5093115;28;20199;-73
2023/10/02 10:28:01;;;;;;;13.57;9.25;;;;;;;22.31;88.70;98692.91;5093428;28;20227;-73
2023/10/02 10:30:33;;;;;;;17.48;10.00;;;;;;;22.37;89.53;98691.78;5093063;28;20206;-73
2023/10/02 10:33:15;;;;;;;16.80;10.13;;;;;;;22.58;88.12;98682.50;5094033;28;20232;-73
2023/10/02 10:35:48;;;;;;;16.63;10.07;;;;;;;22.68;86.98;98677.81;5093248;28;20188;-73
2023/10/02 10:38:21;;;;;;;15.98;10.32;;;;;;;22.78;86.72;98675.03;5092843;28;20722;-73
2023/10/02 10:40:50;;;;;;;18.63;10.55;;;;;;;22.87;85.06;98677.94;5093056;28;20235;-73
2023/10/02 10:43:17;;;;;;;14.70;10.25;;;;;;;23.15;83.92;98671.75;5092407;28;20744;-73
2023/10/02 10:45:44;;;;;;;18.17;11.38;;;;;;;23.05;85.11;98666.41;5093208;28;20207;-73
2023/10/02 10:48:22;;;;;;;15.13;10.48;;;;;;;23.09;80.27;98673.72;5092772;28;20224;-73
2023/10/02 10:51:00;;;;;;;18.17;11.50;;;;;;;23.14;72.59;98664.69;5093099;28;20200;-73
2023/10/02 10:53:32;;;;;;;15.68;10.35;;;;;;;23.34;71.77;98664.56;5094460;28;20184;-73
2023/10/02 10:56:06;;;;;;;14.80;10.35;;;;;;;;;;5097124;28;20200;-73
2023/10/02 10:58:34;;;;;;;16.90;10.80;;;;;;;23.62;65.41;98658.28;5096919;28;20223;-73
2023/10/02 11:01:05;;;;;;;16.88;11.50;;;;;;;23.54;64.63;98658.91;5096077;28;20410;-73
2023/10/02 11:03:32;;;;;;;17.00;11.90;;;;;;;23.58;64.42;98659.97;5097738;28;20240;-73
2023/10/02 11:06:06;;;;;;;16.30;10.93;;;;;;;23.55;60.25;98660.53;5096497;28;20575;-73
2023/10/02 11:08:37;;;;;;;20.45;10.73;;;;;;;23.68;59.45;98660.66;5096337;28;20234;-73
2023/10/02 11:11:21;;;;;;;18.48;10.15;;;;;;;23.70;56.31;98654.97;5096852;28;20202;-73
2023/10/02 11:13:53;;;;;;;16.38;10.57;;;;;;;23.66;59.27;98651.19;5096852;28;20300;-73
2023/10/02 11:16:31;;;;;;;18.27;11.57;;;;;;;23.39;56.70;98650.94;5096453;28;20671;-74
2023/10/02 11:19:11;;;;;;;18.30;11.60;;;;;;;23.56;56.97;98649.38;5096432;28;20250;-73
2023/10/02 11:21:45;;;;;;;18.38;11.95;;;;;;;23.88;56.34;98648.75;5096409;28;20588;-73
2023/10/02 11:24:22;;;;;;;18.67;12.10;;;;;;;23.96;53.47;98638.09;5096317;28;20188;-73
2023/10/02 11:26:53;;;;;;;19.73;12.90;;;;;;;23.81;56.19;98632.00;5096307;28;20188;-73
2023/10/02 11:29:20;;;;;;;19.02;12.23;;;;;;;23.66;55.52;98624.03;5095520;28;20589;-73
2023/10/02 11:31:57;;;;;;;22.48;13.20;;;;;;;23.90;54.25;98625.69;5096161;28;20208;-73
2023/10/02 11:34:23;;;;;;;21.85;13.82;;;;;;;24.09;50.58;98629.22;5096463;28;20192;-73
2023/10/02 11:36:52;;;;;;;20.38;13.38;;;;;;;24.05;52.16;98622.75;5096141;28;20210;-73
2023/10/02 11:39:19;;;;;;;21.02;14.25;;;;;;;23.93;50.94;98625.06;5096037;28;20250;-73
2023/10/02 11:41:47;;;;;;;20.00;13.18;;;;;;;24.07;51.68;98622.47;5096124;28;20231;-73
2023/10/02 11:44:14;;;;;;;22.95;14.35;;;;;;;24.10;49.58;98611.03;5096026;28;20200;-73
2023/10/02 11:46:43;;;;;;;27.02;14.13;;;;;;;24.00;50.94;98609.25;5096325;28;20246;-73
2023/10/02 11:49:10;;;;;;;23.10;14.82;;;;;;;24.02;49.85;98607.03;5096010;28;20585;-73
2023/10/02 11:51:37;;;;;;;23.45;15.10;;;;;;;23.88;48.58;98602.59;5095769;28;20615;-73
2023/10/02 11:54:05;;;;;;;23.58;15.23;;;;;;;23.98;46.27;98603.31;5095859;28;20569;-73
2023/10/02 11:56:34;;;;;;;26.38;16.08;;;;;;;23.93;47.45;98597.13;5095948;28;20212;-73
2023/10/02 11:59:02;;;;;;;26.55;16.95;;;;;;;23.95;46.13;98598.44;5095688;28;20591;-73
2023/10/02 12:01:29;;;;;;;26.27;17.20;;;;;;;24.17;45.15;98592.44;5096077;28;20212;-73
2023/10/02 12:03:57;;;;;;;26.65;17.10;;;;;;;24.28;45.15;98596.66;5095507;28;20331;-73
2023/10/02 12:06:25;;;;;;;25.27;16.92;;;;;;;24.38;45.90;98588.34;5095131;28;20200;-73